Aeroporto :
LOGIN :

Iscrizione | Disclaimer

   EN    FR    IT 

 










Sommario :    VFR   VFR Marginale   IFR   IFR Intensivo   IFR Molto Intensivo
Visibilità : 
Base nubi : 
>= 8 km
>= 3000ft
5 / 8 km
1000 / 3000 ft
1500m / 5 km
500 / 1000 ft
800 / 1500m
200 / 500 ft
< 800m
< 200 ft
Simboli :   Temporali  Nebbia  Neve Forte  Precipitazioni Forti  Vento > 20 kt
SIGMETs :   Varie  Temporali  Ghiacco  Turbolenza  Onda orograficha  Ceneri Vulcaniche






- Altitudine del aeroporto : 464 ft
- Codice IATA : EVX


LFOE - Evreux

ULTIMO METAR :
  • 080200Z AUTO 22016KT 9999 OVC019 10/07 Q1012

METARs OBSOLETI :
  • 080130Z AUTO 21015KT 9999 OVC020 10/07 Q1013
  • 080100Z AUTO 22015KT 9999 OVC023 10/07 Q1013
  • 080030Z AUTO 23013KT 9999 OVC022 10/07 Q1014
  • 080000Z AUTO 23012KT 200V260 9999 BKN019 OVC027 10/08 Q1014
  • 072330Z AUTO 20010KT 9999 BKN016 OVC023 10/08 Q1015

TAF TAF LFOE
Valido dal 07 a 15 ore il 08 a 15 ore UTC


071400Z 0715/0815 24010KT 9999 BKN020 BKN030
TEMPO 0716/0724 BKN010 BKN020
BECMG 0801/0803 23015G25KT
BECMG 0804/0806 23020G30KT 4000 -RA BKN009 OVC015
BECMG 0810/0812 27020G30KT 9999 NSW BKN025 BKN040



MetMap, La meteo Aeronautica in un colpo d'occhio ! - Copyright ORBIFLY Dicembre 2007 - Disclaimer

ORBIFLY MET'MAP TEAM :

Programmazione e sviluppo : Alexandra Zaïnal
Concezione : Baudouin d'Aumeries
Aiuto per la programmazione : Marc-Olivier Méhu
Supporto tecnico e logistico : Manuel Goepfert
Aiuto per la traduzione : Arnaldo La Scala

Contatto : metmap@orbifly.com




FONTI E CREDITI :

   NOAA